Historyczne dane pomiarowe

Dodano dane terminowe – wersja testowa.

Dane z okresu 1951-2019

Wersja bazy: 1.34 [2019-03-16, lista zmian], aktualizacja planowana na 2019-04-15

Dane meteo z obszaru Polski uzyskane na podstawie danych udostępnionych przez Instytut Meteorologii i Gospodarki Wodnej – Państwowy Instytut Badawczy.

 

Wybierz Datę:    

       

TemperaturaWilgotnośćWiatrCiśnienieOpadyŚniegCzas trwania zjawisk
 Stacja t tx tn tng RH VA  wxwx mslp ppp RRR   cm mm wxwxwxwxwxwxwx
1925-01-17 0.2 1.5 -0.8--------- 0.0--x---------
1925-01-18 1.3 1.9 -1.3--------- 0.0--x---------
1925-01-19 3.4 4.0 1.5--------- 0.0--x---------
1925-01-20 1.6 3.9 -1.1--------- 0.1--x---------
1925-01-21 -2.0 0.3 -2.7--------- 0.0--x---------
1925-01-22 1.8 8.7 -5.7--------- 0.0--x---------
1925-01-23 1.3 7.1 -2.6--------- 0.0--x---------
1925-01-24 1.0 3.8 -4.2--------- 0.0--x---------
1925-01-25 1.4 1.9 -0.1--------- 0.0--x---------
1925-01-26 -1.8 1.9 -3.1--------- 0.0--x---------
1925-01-27 -2.2 -0.5 -4.0--------- 0.3--x---------
1925-01-28 4.3 6.8 -4.5--------- 0.0--x---------
1925-01-29 3.8 7.5 -1.4--------- 0.5--x---------
1925-01-30 4.5 6.5 1.4--------- 3.9--x---------
1925-01-31 9.1 9.9 3.1--------- 6.5--x---------
1925-02-01 3.8 9.3 1.6--------- 0.0--x---------
1925-02-02 2.1 4.7 0.5--------- 0.3--x---------
1925-02-03 4.5 5.4 0.7--------- 0.5--x---------
1925-02-04 5.2 8.1 3.4--------- 0.8--x---------
1925-02-05 5.2 7.3 -0.5--------- 1.4--x---------
1925-02-06 7.7 10.1 6.4--------- 0.0--x---------
1925-02-07 6.4 6.9 1.1--------- 0.0--x---------
1925-02-08 2.8 5.9 0.7--------- 0.3--x---------
1925-02-09 7.7 9.7 1.5--------- 2.9--x---------
1925-02-10 8.4 9.9 5.0--------- 4.3--x---------
1925-02-11 8.8 14.7 4.8--------- 0.0--x---------
1925-02-12 9.8 15.6 4.7--------- 0.0--x---------
1925-02-13 5.2 10.7 0.1--------- 0.0--x---------
1925-02-14 9.1 15.5 2.5--------- 0.0--x---------
1925-02-15 10.0 14.4 1.7--------- 0.0--x---------
5.2 ms

 

Źródłem pochodzenia danych jest Instytut Meteorologii i Gospodarki Wodnej – Państwowy Instytut Badawczy. Dane Instytutu Meteorologii i Gospodarki Wodnej – Państwowego Instytutu Badawczego zostały przetworzone.

Dane źródłowe można odnaleźć na stronie https://dane.imgw.pl